sensor_id;sensor_type;location;lat;lon;timestamp;P1;durP1;ratioP1;P2;durP2;ratioP2
84033;SDS011;74115;55.806;37.754;2024-01-30T00:00:34;6.28;;;3.28;;
84033;SDS011;74115;55.806;37.754;2024-01-30T00:03:00;6.00;;;2.75;;
84033;SDS011;74115;55.806;37.754;2024-01-30T00:05:26;5.32;;;3.50;;
84033;SDS011;74115;55.806;37.754;2024-01-30T00:07:52;3.88;;;2.40;;
84033;SDS011;74115;55.806;37.754;2024-01-30T00:10:18;6.57;;;3.63;;
84033;SDS011;74115;55.806;37.754;2024-01-30T00:12:43;7.55;;;4.15;;
84033;SDS011;74115;55.806;37.754;2024-01-30T00:15:09;5.93;;;2.88;;
84033;SDS011;74115;55.806;37.754;2024-01-30T00:17:36;5.75;;;2.95;;
84033;SDS011;74115;55.806;37.754;2024-01-30T00:20:02;7.43;;;3.72;;
84033;SDS011;74115;55.806;37.754;2024-01-30T00:22:31;8.18;;;3.75;;
84033;SDS011;74115;55.806;37.754;2024-01-30T00:24:57;10.27;;;4.10;;
84033;SDS011;74115;55.806;37.754;2024-01-30T00:27:23;5.72;;;2.95;;
84033;SDS011;74115;55.806;37.754;2024-01-30T00:29:49;7.35;;;3.65;;
84033;SDS011;74115;55.806;37.754;2024-01-30T00:32:14;5.95;;;3.70;;
84033;SDS011;74115;55.806;37.754;2024-01-30T00:34:41;5.95;;;4.18;;
84033;SDS011;74115;55.806;37.754;2024-01-30T00:37:07;10.15;;;4.25;;
84033;SDS011;74115;55.806;37.754;2024-01-30T00:39:33;7.00;;;3.53;;
84033;SDS011;74115;55.806;37.754;2024-01-30T00:41:59;7.25;;;3.08;;
84033;SDS011;74115;55.806;37.754;2024-01-30T00:44:24;6.60;;;3.47;;
84033;SDS011;74115;55.806;37.754;2024-01-30T00:46:50;8.98;;;3.60;;
84033;SDS011;74115;55.806;37.754;2024-01-30T00:49:16;5.78;;;2.88;;
84033;SDS011;74115;55.806;37.754;2024-01-30T00:51:41;8.95;;;4.30;;
84033;SDS011;74115;55.806;37.754;2024-01-30T00:54:07;8.95;;;4.55;;
84033;SDS011;74115;55.806;37.754;2024-01-30T00:56:33;5.65;;;2.70;;
84033;SDS011;74115;55.806;37.754;2024-01-30T00:58:59;8.80;;;4.35;;
84033;SDS011;74115;55.806;37.754;2024-01-30T01:01:25;6.03;;;3.10;;
84033;SDS011;74115;55.806;37.754;2024-01-30T01:03:50;9.25;;;4.05;;
84033;SDS011;74115;55.806;37.754;2024-01-30T01:06:16;3.58;;;2.25;;
84033;SDS011;74115;55.806;37.754;2024-01-30T01:08:42;8.02;;;3.85;;
84033;SDS011;74115;55.806;37.754;2024-01-30T01:11:07;8.02;;;3.78;;
84033;SDS011;74115;55.806;37.754;2024-01-30T01:13:33;6.57;;;3.03;;
84033;SDS011;74115;55.806;37.754;2024-01-30T01:15:59;7.60;;;3.47;;
84033;SDS011;74115;55.806;37.754;2024-01-30T01:18:24;5.85;;;3.63;;
84033;SDS011;74115;55.806;37.754;2024-01-30T01:20:50;8.57;;;3.90;;
84033;SDS011;74115;55.806;37.754;2024-01-30T01:23:16;6.00;;;3.30;;
84033;SDS011;74115;55.806;37.754;2024-01-30T01:25:41;7.35;;;3.78;;
84033;SDS011;74115;55.806;37.754;2024-01-30T01:28:07;9.20;;;4.32;;
84033;SDS011;74115;55.806;37.754;2024-01-30T01:30:33;7.22;;;3.63;;
84033;SDS011;74115;55.806;37.754;2024-01-30T01:32:59;7.38;;;4.40;;
84033;SDS011;74115;55.806;37.754;2024-01-30T01:35:26;10.18;;;4.00;;
84033;SDS011;74115;55.806;37.754;2024-01-30T01:37:53;9.00;;;3.78;;
84033;SDS011;74115;55.806;37.754;2024-01-30T01:40:23;7.05;;;3.60;;
84033;SDS011;74115;55.806;37.754;2024-01-30T01:42:52;5.28;;;2.72;;
84033;SDS011;74115;55.806;37.754;2024-01-30T01:45:19;6.93;;;4.07;;
84033;SDS011;74115;55.806;37.754;2024-01-30T01:47:48;7.05;;;3.22;;
84033;SDS011;74115;55.806;37.754;2024-01-30T01:50:16;5.13;;;3.13;;
84033;SDS011;74115;55.806;37.754;2024-01-30T01:55:11;4.10;;;2.83;;
84033;SDS011;74115;55.806;37.754;2024-01-30T01:57:37;7.35;;;3.78;;
84033;SDS011;74115;55.806;37.754;2024-01-30T02:00:03;7.70;;;4.18;;
84033;SDS011;74115;55.806;37.754;2024-01-30T02:02:30;5.78;;;3.00;;
84033;SDS011;74115;55.806;37.754;2024-01-30T02:04:59;5.80;;;3.10;;
84033;SDS011;74115;55.806;37.754;2024-01-30T02:07:25;6.80;;;3.63;;
84033;SDS011;74115;55.806;37.754;2024-01-30T02:09:51;8.27;;;3.10;;
84033;SDS011;74115;55.806;37.754;2024-01-30T02:12:16;6.70;;;3.13;;
84033;SDS011;74115;55.806;37.754;2024-01-30T02:14:48;5.63;;;3.58;;
84033;SDS011;74115;55.806;37.754;2024-01-30T02:17:15;5.70;;;3.80;;
84033;SDS011;74115;55.806;37.754;2024-01-30T02:19:41;6.97;;;4.25;;
84033;SDS011;74115;55.806;37.754;2024-01-30T02:22:07;8.88;;;3.88;;
84033;SDS011;74115;55.806;37.754;2024-01-30T02:24:34;5.93;;;3.63;;
84033;SDS011;74115;55.806;37.754;2024-01-30T02:27:00;5.85;;;3.20;;
84033;SDS011;74115;55.806;37.754;2024-01-30T02:29:25;6.63;;;3.17;;
84033;SDS011;74115;55.806;37.754;2024-01-30T02:31:51;8.02;;;3.75;;
84033;SDS011;74115;55.806;37.754;2024-01-30T02:34:18;7.70;;;4.43;;
84033;SDS011;74115;55.806;37.754;2024-01-30T02:36:45;7.97;;;3.47;;
84033;SDS011;74115;55.806;37.754;2024-01-30T02:39:11;6.90;;;3.47;;
84033;SDS011;74115;55.806;37.754;2024-01-30T02:41:36;6.35;;;3.35;;
84033;SDS011;74115;55.806;37.754;2024-01-30T02:44:03;6.55;;;2.88;;
84033;SDS011;74115;55.806;37.754;2024-01-30T02:46:29;6.50;;;3.72;;
84033;SDS011;74115;55.806;37.754;2024-01-30T02:48:55;7.13;;;3.38;;
84033;SDS011;74115;55.806;37.754;2024-01-30T02:51:21;7.97;;;4.28;;
84033;SDS011;74115;55.806;37.754;2024-01-30T02:53:47;5.63;;;3.35;;
84033;SDS011;74115;55.806;37.754;2024-01-30T02:56:13;6.93;;;3.75;;
84033;SDS011;74115;55.806;37.754;2024-01-30T02:58:39;6.90;;;2.95;;
84033;SDS011;74115;55.806;37.754;2024-01-30T03:01:06;8.00;;;3.28;;
84033;SDS011;74115;55.806;37.754;2024-01-30T03:03:32;6.30;;;2.58;;
84033;SDS011;74115;55.806;37.754;2024-01-30T03:06:02;7.53;;;4.20;;
84033;SDS011;74115;55.806;37.754;2024-01-30T03:08:30;8.70;;;4.07;;
84033;SDS011;74115;55.806;37.754;2024-01-30T03:10:56;6.55;;;3.80;;
84033;SDS011;74115;55.806;37.754;2024-01-30T03:13:22;7.60;;;2.78;;
84033;SDS011;74115;55.806;37.754;2024-01-30T03:15:50;7.10;;;3.30;;
84033;SDS011;74115;55.806;37.754;2024-01-30T03:18:16;9.45;;;3.65;;
84033;SDS011;74115;55.806;37.754;2024-01-30T03:20:41;9.73;;;4.22;;
84033;SDS011;74115;55.806;37.754;2024-01-30T03:23:07;5.20;;;3.10;;
84033;SDS011;74115;55.806;37.754;2024-01-30T03:25:33;5.78;;;3.17;;
84033;SDS011;74115;55.806;37.754;2024-01-30T03:27:59;7.95;;;3.88;;
84033;SDS011;74115;55.806;37.754;2024-01-30T03:30:25;7.18;;;3.30;;
84033;SDS011;74115;55.806;37.754;2024-01-30T03:32:50;9.23;;;3.03;;
84033;SDS011;74115;55.806;37.754;2024-01-30T03:35:16;6.53;;;3.13;;
84033;SDS011;74115;55.806;37.754;2024-01-30T03:37:42;7.32;;;4.00;;
84033;SDS011;74115;55.806;37.754;2024-01-30T03:40:08;6.22;;;2.97;;
84033;SDS011;74115;55.806;37.754;2024-01-30T03:42:34;6.13;;;3.53;;
84033;SDS011;74115;55.806;37.754;2024-01-30T03:44:59;8.10;;;3.58;;
84033;SDS011;74115;55.806;37.754;2024-01-30T03:47:25;4.65;;;3.22;;
84033;SDS011;74115;55.806;37.754;2024-01-30T03:49:51;6.57;;;3.70;;
84033;SDS011;74115;55.806;37.754;2024-01-30T03:52:16;7.85;;;3.70;;
84033;SDS011;74115;55.806;37.754;2024-01-30T03:54:42;6.60;;;3.45;;
84033;SDS011;74115;55.806;37.754;2024-01-30T03:57:08;7.13;;;3.40;;
84033;SDS011;74115;55.806;37.754;2024-01-30T03:59:36;7.55;;;3.42;;
84033;SDS011;74115;55.806;37.754;2024-01-30T04:02:02;7.05;;;2.92;;
84033;SDS011;74115;55.806;37.754;2024-01-30T04:04:31;9.48;;;4.03;;
84033;SDS011;74115;55.806;37.754;2024-01-30T04:06:56;8.50;;;4.15;;
84033;SDS011;74115;55.806;37.754;2024-01-30T04:09:22;6.95;;;3.45;;
84033;SDS011;74115;55.806;37.754;2024-01-30T04:11:48;5.60;;;3.65;;
84033;SDS011;74115;55.806;37.754;2024-01-30T04:14:13;11.38;;;4.50;;
84033;SDS011;74115;55.806;37.754;2024-01-30T04:16:39;6.00;;;3.03;;
84033;SDS011;74115;55.806;37.754;2024-01-30T04:19:05;5.53;;;3.13;;
84033;SDS011;74115;55.806;37.754;2024-01-30T04:21:31;7.18;;;3.50;;
84033;SDS011;74115;55.806;37.754;2024-01-30T04:24:00;7.03;;;3.72;;
84033;SDS011;74115;55.806;37.754;2024-01-30T04:26:25;8.02;;;4.07;;
84033;SDS011;74115;55.806;37.754;2024-01-30T04:28:51;6.20;;;3.40;;
84033;SDS011;74115;55.806;37.754;2024-01-30T04:31:17;5.75;;;3.20;;
84033;SDS011;74115;55.806;37.754;2024-01-30T04:33:43;8.48;;;4.65;;
84033;SDS011;74115;55.806;37.754;2024-01-30T04:36:09;8.73;;;3.58;;
84033;SDS011;74115;55.806;37.754;2024-01-30T04:38:38;7.78;;;4.10;;
84033;SDS011;74115;55.806;37.754;2024-01-30T04:41:04;7.70;;;3.97;;
84033;SDS011;74115;55.806;37.754;2024-01-30T04:43:30;5.28;;;3.30;;
84033;SDS011;74115;55.806;37.754;2024-01-30T04:45:56;6.15;;;3.22;;
84033;SDS011;74115;55.806;37.754;2024-01-30T04:48:22;8.27;;;4.50;;
84033;SDS011;74115;55.806;37.754;2024-01-30T04:50:48;12.32;;;3.95;;
84033;SDS011;74115;55.806;37.754;2024-01-30T04:53:13;8.55;;;4.63;;
84033;SDS011;74115;55.806;37.754;2024-01-30T04:55:39;9.95;;;4.28;;
84033;SDS011;74115;55.806;37.754;2024-01-30T04:58:05;6.55;;;3.83;;
84033;SDS011;74115;55.806;37.754;2024-01-30T05:00:30;7.88;;;3.90;;
84033;SDS011;74115;55.806;37.754;2024-01-30T05:02:56;8.25;;;3.42;;
84033;SDS011;74115;55.806;37.754;2024-01-30T05:05:22;11.23;;;4.20;;
84033;SDS011;74115;55.806;37.754;2024-01-30T05:07:48;8.90;;;3.60;;
84033;SDS011;74115;55.806;37.754;2024-01-30T05:12:41;7.63;;;3.58;;
84033;SDS011;74115;55.806;37.754;2024-01-30T05:15:07;5.65;;;3.55;;
84033;SDS011;74115;55.806;37.754;2024-01-30T05:17:33;4.00;;;3.00;;
84033;SDS011;74115;55.806;37.754;2024-01-30T05:19:59;6.97;;;4.00;;
84033;SDS011;74115;55.806;37.754;2024-01-30T05:22:30;6.40;;;3.30;;
84033;SDS011;74115;55.806;37.754;2024-01-30T05:24:55;7.40;;;4.40;;
84033;SDS011;74115;55.806;37.754;2024-01-30T05:27:21;8.32;;;5.07;;
84033;SDS011;74115;55.806;37.754;2024-01-30T05:29:47;10.85;;;4.13;;
84033;SDS011;74115;55.806;37.754;2024-01-30T05:32:13;11.57;;;4.25;;
84033;SDS011;74115;55.806;37.754;2024-01-30T05:34:39;7.25;;;3.92;;
84033;SDS011;74115;55.806;37.754;2024-01-30T05:37:04;8.57;;;3.42;;
84033;SDS011;74115;55.806;37.754;2024-01-30T05:39:30;7.05;;;4.53;;
84033;SDS011;74115;55.806;37.754;2024-01-30T05:41:58;8.68;;;3.15;;
84033;SDS011;74115;55.806;37.754;2024-01-30T05:44:24;4.30;;;3.17;;
84033;SDS011;74115;55.806;37.754;2024-01-30T05:47:00;7.78;;;4.03;;
84033;SDS011;74115;55.806;37.754;2024-01-30T05:49:26;6.85;;;3.63;;
84033;SDS011;74115;55.806;37.754;2024-01-30T05:51:52;10.45;;;4.40;;
84033;SDS011;74115;55.806;37.754;2024-01-30T05:54:18;9.60;;;4.85;;
84033;SDS011;74115;55.806;37.754;2024-01-30T05:56:44;7.72;;;3.88;;
84033;SDS011;74115;55.806;37.754;2024-01-30T05:59:09;6.50;;;4.18;;
84033;SDS011;74115;55.806;37.754;2024-01-30T06:01:37;8.82;;;5.15;;
84033;SDS011;74115;55.806;37.754;2024-01-30T06:04:05;8.88;;;4.20;;
84033;SDS011;74115;55.806;37.754;2024-01-30T06:06:31;11.45;;;4.45;;
84033;SDS011;74115;55.806;37.754;2024-01-30T06:08:56;10.95;;;4.35;;
84033;SDS011;74115;55.806;37.754;2024-01-30T06:11:22;9.55;;;4.20;;
84033;SDS011;74115;55.806;37.754;2024-01-30T06:13:51;12.40;;;4.30;;
84033;SDS011;74115;55.806;37.754;2024-01-30T06:16:18;14.00;;;5.85;;
84033;SDS011;74115;55.806;37.754;2024-01-30T06:18:46;6.00;;;3.05;;
84033;SDS011;74115;55.806;37.754;2024-01-30T06:21:13;5.40;;;3.45;;
84033;SDS011;74115;55.806;37.754;2024-01-30T06:23:41;6.88;;;4.15;;
84033;SDS011;74115;55.806;37.754;2024-01-30T06:26:09;9.82;;;5.13;;
84033;SDS011;74115;55.806;37.754;2024-01-30T06:28:35;8.88;;;4.13;;
84033;SDS011;74115;55.806;37.754;2024-01-30T06:31:01;8.20;;;3.70;;
84033;SDS011;74115;55.806;37.754;2024-01-30T06:33:27;7.65;;;3.55;;
84033;SDS011;74115;55.806;37.754;2024-01-30T06:35:53;8.32;;;4.55;;
84033;SDS011;74115;55.806;37.754;2024-01-30T06:38:19;11.93;;;4.75;;
84033;SDS011;74115;55.806;37.754;2024-01-30T06:40:44;11.13;;;5.55;;
84033;SDS011;74115;55.806;37.754;2024-01-30T06:43:10;11.73;;;5.05;;
84033;SDS011;74115;55.806;37.754;2024-01-30T06:45:36;10.98;;;4.88;;
84033;SDS011;74115;55.806;37.754;2024-01-30T06:48:02;14.35;;;4.53;;
84033;SDS011;74115;55.806;37.754;2024-01-30T06:50:28;11.25;;;4.30;;
84033;SDS011;74115;55.806;37.754;2024-01-30T06:52:54;11.00;;;5.10;;
84033;SDS011;74115;55.806;37.754;2024-01-30T06:55:20;13.02;;;4.63;;
84033;SDS011;74115;55.806;37.754;2024-01-30T06:57:45;7.55;;;4.72;;
84033;SDS011;74115;55.806;37.754;2024-01-30T07:00:11;8.85;;;5.07;;
84033;SDS011;74115;55.806;37.754;2024-01-30T07:02:38;10.00;;;5.03;;
84033;SDS011;74115;55.806;37.754;2024-01-30T07:05:04;11.00;;;5.03;;
84033;SDS011;74115;55.806;37.754;2024-01-30T07:07:30;9.63;;;3.55;;
84033;SDS011;74115;55.806;37.754;2024-01-30T07:09:56;9.18;;;4.55;;
84033;SDS011;74115;55.806;37.754;2024-01-30T07:12:22;10.10;;;4.80;;
84033;SDS011;74115;55.806;37.754;2024-01-30T07:14:49;7.47;;;3.90;;
84033;SDS011;74115;55.806;37.754;2024-01-30T07:17:15;12.48;;;5.47;;
84033;SDS011;74115;55.806;37.754;2024-01-30T07:19:41;9.55;;;4.63;;
84033;SDS011;74115;55.806;37.754;2024-01-30T07:22:07;13.68;;;5.45;;
84033;SDS011;74115;55.806;37.754;2024-01-30T07:24:33;13.00;;;6.25;;
84033;SDS011;74115;55.806;37.754;2024-01-30T07:26:59;12.98;;;5.22;;
84033;SDS011;74115;55.806;37.754;2024-01-30T07:29:25;13.90;;;5.25;;
84033;SDS011;74115;55.806;37.754;2024-01-30T07:31:51;13.05;;;4.82;;
84033;SDS011;74115;55.806;37.754;2024-01-30T07:34:16;12.77;;;6.05;;
84033;SDS011;74115;55.806;37.754;2024-01-30T07:36:42;10.70;;;5.68;;
84033;SDS011;74115;55.806;37.754;2024-01-30T07:39:08;11.80;;;5.70;;
84033;SDS011;74115;55.806;37.754;2024-01-30T07:41:35;10.20;;;5.07;;
84033;SDS011;74115;55.806;37.754;2024-01-30T07:44:00;9.88;;;4.10;;
84033;SDS011;74115;55.806;37.754;2024-01-30T07:46:26;9.38;;;4.82;;
84033;SDS011;74115;55.806;37.754;2024-01-30T07:48:52;9.32;;;4.47;;
84033;SDS011;74115;55.806;37.754;2024-01-30T07:51:18;11.25;;;5.25;;
84033;SDS011;74115;55.806;37.754;2024-01-30T07:53:44;8.40;;;4.60;;
84033;SDS011;74115;55.806;37.754;2024-01-30T07:56:10;11.02;;;5.35;;
84033;SDS011;74115;55.806;37.754;2024-01-30T07:58:36;8.70;;;4.38;;
84033;SDS011;74115;55.806;37.754;2024-01-30T08:01:02;11.50;;;5.70;;
84033;SDS011;74115;55.806;37.754;2024-01-30T08:03:28;12.02;;;4.90;;
84033;SDS011;74115;55.806;37.754;2024-01-30T08:05:54;10.75;;;5.45;;
84033;SDS011;74115;55.806;37.754;2024-01-30T08:08:20;7.93;;;4.38;;
84033;SDS011;74115;55.806;37.754;2024-01-30T08:10:46;12.32;;;4.78;;
84033;SDS011;74115;55.806;37.754;2024-01-30T08:13:11;10.07;;;5.22;;
84033;SDS011;74115;55.806;37.754;2024-01-30T08:15:37;11.90;;;5.93;;
84033;SDS011;74115;55.806;37.754;2024-01-30T08:18:03;9.18;;;5.10;;
84033;SDS011;74115;55.806;37.754;2024-01-30T08:20:30;10.13;;;5.10;;
84033;SDS011;74115;55.806;37.754;2024-01-30T08:22:56;10.02;;;4.68;;
84033;SDS011;74115;55.806;37.754;2024-01-30T08:25:21;14.00;;;5.45;;
84033;SDS011;74115;55.806;37.754;2024-01-30T08:27:47;8.43;;;3.95;;
84033;SDS011;74115;55.806;37.754;2024-01-30T08:30:13;12.45;;;5.95;;
84033;SDS011;74115;55.806;37.754;2024-01-30T08:32:39;11.98;;;5.00;;
84033;SDS011;74115;55.806;37.754;2024-01-30T08:35:05;10.05;;;5.22;;
84033;SDS011;74115;55.806;37.754;2024-01-30T08:37:32;8.43;;;4.53;;
84033;SDS011;74115;55.806;37.754;2024-01-30T08:39:57;10.60;;;6.15;;
84033;SDS011;74115;55.806;37.754;2024-01-30T08:42:23;13.00;;;6.25;;
84033;SDS011;74115;55.806;37.754;2024-01-30T08:44:49;10.82;;;5.22;;
84033;SDS011;74115;55.806;37.754;2024-01-30T08:47:17;11.50;;;4.55;;
84033;SDS011;74115;55.806;37.754;2024-01-30T08:49:44;12.68;;;5.25;;
84033;SDS011;74115;55.806;37.754;2024-01-30T08:52:10;9.13;;;5.10;;
84033;SDS011;74115;55.806;37.754;2024-01-30T08:54:36;13.25;;;5.47;;
84033;SDS011;74115;55.806;37.754;2024-01-30T08:57:02;16.02;;;5.57;;
84033;SDS011;74115;55.806;37.754;2024-01-30T08:59:28;11.00;;;5.22;;
84033;SDS011;74115;55.806;37.754;2024-01-30T09:01:54;9.18;;;5.22;;
84033;SDS011;74115;55.806;37.754;2024-01-30T09:04:23;13.70;;;5.35;;
84033;SDS011;74115;55.806;37.754;2024-01-30T09:06:49;8.85;;;4.88;;
84033;SDS011;74115;55.806;37.754;2024-01-30T09:09:15;13.52;;;5.28;;
84033;SDS011;74115;55.806;37.754;2024-01-30T09:11:41;8.90;;;4.45;;
84033;SDS011;74115;55.806;37.754;2024-01-30T09:14:07;17.83;;;7.75;;
84033;SDS011;74115;55.806;37.754;2024-01-30T09:16:33;10.48;;;6.25;;
84033;SDS011;74115;55.806;37.754;2024-01-30T09:18:59;10.30;;;5.63;;
84033;SDS011;74115;55.806;37.754;2024-01-30T09:21:25;9.98;;;4.50;;
84033;SDS011;74115;55.806;37.754;2024-01-30T09:23:52;11.70;;;5.80;;
84033;SDS011;74115;55.806;37.754;2024-01-30T09:26:19;11.15;;;5.47;;
84033;SDS011;74115;55.806;37.754;2024-01-30T09:28:45;7.78;;;4.47;;
84033;SDS011;74115;55.806;37.754;2024-01-30T09:31:11;12.52;;;5.57;;
84033;SDS011;74115;55.806;37.754;2024-01-30T09:33:37;10.18;;;5.82;;
84033;SDS011;74115;55.806;37.754;2024-01-30T09:36:04;14.10;;;5.47;;
84033;SDS011;74115;55.806;37.754;2024-01-30T09:38:31;6.47;;;4.00;;
84033;SDS011;74115;55.806;37.754;2024-01-30T09:40:56;9.25;;;4.13;;
84033;SDS011;74115;55.806;37.754;2024-01-30T09:43:29;9.82;;;5.63;;
84033;SDS011;74115;55.806;37.754;2024-01-30T09:45:58;11.18;;;5.32;;
84033;SDS011;74115;55.806;37.754;2024-01-30T09:48:25;12.25;;;5.55;;
84033;SDS011;74115;55.806;37.754;2024-01-30T09:50:52;9.98;;;5.38;;
84033;SDS011;74115;55.806;37.754;2024-01-30T09:53:17;8.88;;;5.47;;
84033;SDS011;74115;55.806;37.754;2024-01-30T09:55:43;11.40;;;5.55;;
84033;SDS011;74115;55.806;37.754;2024-01-30T09:58:09;19.00;;;5.47;;
84033;SDS011;74115;55.806;37.754;2024-01-30T10:00:35;10.43;;;5.22;;
84033;SDS011;74115;55.806;37.754;2024-01-30T10:03:00;10.90;;;6.50;;
84033;SDS011;74115;55.806;37.754;2024-01-30T10:05:26;10.77;;;5.90;;
84033;SDS011;74115;55.806;37.754;2024-01-30T10:07:56;12.40;;;5.22;;
84033;SDS011;74115;55.806;37.754;2024-01-30T10:10:22;12.00;;;5.50;;
84033;SDS011;74115;55.806;37.754;2024-01-30T10:12:49;13.68;;;7.45;;
84033;SDS011;74115;55.806;37.754;2024-01-30T10:15:14;10.65;;;5.95;;
84033;SDS011;74115;55.806;37.754;2024-01-30T10:17:40;14.82;;;6.47;;
84033;SDS011;74115;55.806;37.754;2024-01-30T10:20:06;10.68;;;5.20;;
84033;SDS011;74115;55.806;37.754;2024-01-30T10:22:33;12.82;;;6.25;;
84033;SDS011;74115;55.806;37.754;2024-01-30T10:24:59;10.70;;;5.38;;
84033;SDS011;74115;55.806;37.754;2024-01-30T10:27:26;13.50;;;5.50;;
84033;SDS011;74115;55.806;37.754;2024-01-30T10:29:55;13.48;;;6.22;;
84033;SDS011;74115;55.806;37.754;2024-01-30T10:32:21;9.60;;;6.10;;
84033;SDS011;74115;55.806;37.754;2024-01-30T10:34:47;14.60;;;5.47;;
84033;SDS011;74115;55.806;37.754;2024-01-30T10:37:15;11.73;;;4.75;;
84033;SDS011;74115;55.806;37.754;2024-01-30T10:39:45;11.25;;;6.22;;
84033;SDS011;74115;55.806;37.754;2024-01-30T10:42:14;12.68;;;5.60;;
84033;SDS011;74115;55.806;37.754;2024-01-30T10:44:50;7.68;;;4.50;;
84033;SDS011;74115;55.806;37.754;2024-01-30T10:47:21;7.88;;;5.00;;
84033;SDS011;74115;55.806;37.754;2024-01-30T10:49:52;9.98;;;5.35;;
84033;SDS011;74115;55.806;37.754;2024-01-30T10:52:18;10.32;;;4.97;;
84033;SDS011;74115;55.806;37.754;2024-01-30T10:54:44;14.77;;;5.55;;
84033;SDS011;74115;55.806;37.754;2024-01-30T10:57:10;14.38;;;6.15;;
84033;SDS011;74115;55.806;37.754;2024-01-30T10:59:36;11.73;;;4.75;;
84033;SDS011;74115;55.806;37.754;2024-01-30T11:02:02;10.90;;;5.32;;
84033;SDS011;74115;55.806;37.754;2024-01-30T11:04:35;16.30;;;5.70;;
84033;SDS011;74115;55.806;37.754;2024-01-30T11:07:15;10.27;;;5.85;;
84033;SDS011;74115;55.806;37.754;2024-01-30T11:09:51;10.43;;;5.00;;
84033;SDS011;74115;55.806;37.754;2024-01-30T11:12:21;10.35;;;5.05;;
84033;SDS011;74115;55.806;37.754;2024-01-30T11:14:48;9.63;;;4.50;;
84033;SDS011;74115;55.806;37.754;2024-01-30T11:17:14;12.55;;;5.85;;
84033;SDS011;74115;55.806;37.754;2024-01-30T11:19:41;12.77;;;5.43;;
84033;SDS011;74115;55.806;37.754;2024-01-30T11:22:07;13.95;;;5.15;;
84033;SDS011;74115;55.806;37.754;2024-01-30T11:24:38;12.27;;;7.10;;
84033;SDS011;74115;55.806;37.754;2024-01-30T11:27:08;26.50;;;8.10;;
84033;SDS011;74115;55.806;37.754;2024-01-30T11:29:34;10.82;;;5.65;;
84033;SDS011;74115;55.806;37.754;2024-01-30T11:32:00;11.32;;;5.65;;
84033;SDS011;74115;55.806;37.754;2024-01-30T11:34:26;16.98;;;6.13;;
84033;SDS011;74115;55.806;37.754;2024-01-30T11:36:53;13.40;;;6.30;;
84033;SDS011;74115;55.806;37.754;2024-01-30T11:39:29;16.38;;;7.13;;
84033;SDS011;74115;55.806;37.754;2024-01-30T11:41:55;9.27;;;5.05;;
84033;SDS011;74115;55.806;37.754;2024-01-30T11:44:22;10.23;;;5.90;;
84033;SDS011;74115;55.806;37.754;2024-01-30T11:46:48;13.95;;;6.43;;
84033;SDS011;74115;55.806;37.754;2024-01-30T11:49:14;12.82;;;6.57;;
84033;SDS011;74115;55.806;37.754;2024-01-30T11:51:41;13.27;;;6.20;;
84033;SDS011;74115;55.806;37.754;2024-01-30T11:54:07;12.07;;;4.78;;
84033;SDS011;74115;55.806;37.754;2024-01-30T11:56:33;15.73;;;7.38;;
84033;SDS011;74115;55.806;37.754;2024-01-30T11:58:59;16.10;;;6.30;;
84033;SDS011;74115;55.806;37.754;2024-01-30T12:01:26;12.55;;;5.07;;
84033;SDS011;74115;55.806;37.754;2024-01-30T12:03:52;13.20;;;6.40;;
84033;SDS011;74115;55.806;37.754;2024-01-30T12:06:18;18.63;;;6.53;;
84033;SDS011;74115;55.806;37.754;2024-01-30T12:08:55;8.20;;;4.40;;
84033;SDS011;74115;55.806;37.754;2024-01-30T12:11:30;11.32;;;5.38;;
84033;SDS011;74115;55.806;37.754;2024-01-30T12:13:56;13.55;;;4.05;;
84033;SDS011;74115;55.806;37.754;2024-01-30T12:16:22;12.23;;;5.38;;
84033;SDS011;74115;55.806;37.754;2024-01-30T12:18:48;12.48;;;5.75;;
84033;SDS011;74115;55.806;37.754;2024-01-30T12:21:17;9.23;;;4.80;;
84033;SDS011;74115;55.806;37.754;2024-01-30T12:23:43;10.73;;;5.57;;
84033;SDS011;74115;55.806;37.754;2024-01-30T12:26:10;15.75;;;5.95;;
84033;SDS011;74115;55.806;37.754;2024-01-30T12:28:36;14.95;;;5.72;;
84033;SDS011;74115;55.806;37.754;2024-01-30T12:31:05;12.52;;;5.78;;
84033;SDS011;74115;55.806;37.754;2024-01-30T12:33:31;14.98;;;5.93;;
84033;SDS011;74115;55.806;37.754;2024-01-30T12:35:57;15.75;;;5.75;;
84033;SDS011;74115;55.806;37.754;2024-01-30T12:38:27;13.43;;;7.13;;
84033;SDS011;74115;55.806;37.754;2024-01-30T12:40:55;10.27;;;4.72;;
84033;SDS011;74115;55.806;37.754;2024-01-30T12:43:22;12.90;;;6.18;;
84033;SDS011;74115;55.806;37.754;2024-01-30T12:45:49;13.77;;;6.20;;
84033;SDS011;74115;55.806;37.754;2024-01-30T12:48:15;16.92;;;6.03;;
84033;SDS011;74115;55.806;37.754;2024-01-30T12:50:41;15.65;;;7.10;;
84033;SDS011;74115;55.806;37.754;2024-01-30T12:53:07;10.57;;;4.50;;
84033;SDS011;74115;55.806;37.754;2024-01-30T12:55:34;12.00;;;5.88;;
84033;SDS011;74115;55.806;37.754;2024-01-30T12:58:00;13.85;;;5.35;;
84033;SDS011;74115;55.806;37.754;2024-01-30T13:00:26;14.43;;;6.30;;
84033;SDS011;74115;55.806;37.754;2024-01-30T13:02:52;15.05;;;6.28;;
84033;SDS011;74115;55.806;37.754;2024-01-30T13:05:18;11.73;;;6.00;;
84033;SDS011;74115;55.806;37.754;2024-01-30T13:07:43;15.02;;;6.45;;
84033;SDS011;74115;55.806;37.754;2024-01-30T13:10:09;13.90;;;5.55;;
84033;SDS011;74115;55.806;37.754;2024-01-30T13:12:35;11.35;;;5.38;;
84033;SDS011;74115;55.806;37.754;2024-01-30T13:15:02;14.43;;;7.05;;
84033;SDS011;74115;55.806;37.754;2024-01-30T13:17:33;11.73;;;5.97;;
84033;SDS011;74115;55.806;37.754;2024-01-30T13:20:00;15.13;;;6.25;;
84033;SDS011;74115;55.806;37.754;2024-01-30T13:22:25;13.85;;;7.28;;
84033;SDS011;74115;55.806;37.754;2024-01-30T13:24:51;11.75;;;5.57;;
84033;SDS011;74115;55.806;37.754;2024-01-30T13:27:17;12.07;;;6.22;;
84033;SDS011;74115;55.806;37.754;2024-01-30T13:29:43;15.55;;;5.63;;
84033;SDS011;74115;55.806;37.754;2024-01-30T13:32:08;13.43;;;7.40;;
84033;SDS011;74115;55.806;37.754;2024-01-30T13:34:34;11.60;;;6.78;;
84033;SDS011;74115;55.806;37.754;2024-01-30T13:37:00;13.05;;;5.95;;
84033;SDS011;74115;55.806;37.754;2024-01-30T13:39:26;13.23;;;7.22;;
84033;SDS011;74115;55.806;37.754;2024-01-30T13:41:52;12.20;;;6.18;;
84033;SDS011;74115;55.806;37.754;2024-01-30T13:44:18;17.35;;;7.43;;
84033;SDS011;74115;55.806;37.754;2024-01-30T13:46:44;15.80;;;6.80;;
84033;SDS011;74115;55.806;37.754;2024-01-30T13:49:10;11.65;;;5.07;;
84033;SDS011;74115;55.806;37.754;2024-01-30T13:51:36;17.33;;;6.20;;
84033;SDS011;74115;55.806;37.754;2024-01-30T13:54:01;13.80;;;6.60;;
84033;SDS011;74115;55.806;37.754;2024-01-30T13:56:29;12.18;;;5.75;;
84033;SDS011;74115;55.806;37.754;2024-01-30T13:58:55;14.65;;;7.18;;
84033;SDS011;74115;55.806;37.754;2024-01-30T14:01:22;14.43;;;6.15;;
84033;SDS011;74115;55.806;37.754;2024-01-30T14:03:48;13.80;;;6.50;;
84033;SDS011;74115;55.806;37.754;2024-01-30T14:06:14;14.13;;;6.85;;
84033;SDS011;74115;55.806;37.754;2024-01-30T14:08:40;13.75;;;6.07;;
84033;SDS011;74115;55.806;37.754;2024-01-30T14:11:06;16.20;;;7.18;;
84033;SDS011;74115;55.806;37.754;2024-01-30T14:13:32;29.80;;;7.13;;
84033;SDS011;74115;55.806;37.754;2024-01-30T14:15:58;16.17;;;6.30;;
84033;SDS011;74115;55.806;37.754;2024-01-30T14:18:24;11.10;;;5.00;;
84033;SDS011;74115;55.806;37.754;2024-01-30T14:21:02;15.23;;;7.00;;
84033;SDS011;74115;55.806;37.754;2024-01-30T14:23:28;24.55;;;7.35;;
84033;SDS011;74115;55.806;37.754;2024-01-30T14:25:54;16.02;;;6.45;;
84033;SDS011;74115;55.806;37.754;2024-01-30T14:28:20;9.57;;;4.97;;